Time;durP1;ratioP1;P1;durP2;ratioP2;P2;SDS_P1;SDS_P2;PMS_P1;PMS_P2;Temp;Humidity;BMP_temperature;BMP_pressure;BME280_temperature;BME280_humidity;BME280_pressure;Samples;Min_cycle;Max_cycle;Signal;HPM_P1;HPM_P2
2023/10/27 00:00:36;;;;;;;43.78;22.95;;;10.20;99.90;;;;;;4992829;28;20403;-76
2023/10/27 00:03:02;;;;;;;44.75;22.50;;;10.20;99.90;;;;;;5005797;28;20061;-76
2023/10/27 00:05:27;;;;;;;43.35;23.30;;;10.20;99.90;;;;;;4993307;28;20081;-75
2023/10/27 00:07:53;;;;;;;42.85;23.15;;;10.20;99.90;;;;;;4999674;28;20065;-76
2023/10/27 00:10:18;;;;;;;42.50;22.35;;;10.20;99.90;;;;;;4991203;28;20045;-75
2023/10/27 00:12:44;;;;;;;41.55;22.00;;;10.10;99.90;;;;;;5000861;28;20045;-76
2023/10/27 00:15:10;;;;;;;42.47;22.00;;;10.20;99.90;;;;;;4989568;28;20567;-76
2023/10/27 00:17:36;;;;;;;43.22;21.30;;;10.20;99.90;;;;;;5000128;28;20062;-76
2023/10/27 00:20:05;;;;;;;42.70;22.23;;;10.20;99.90;;;;;;5005225;28;20141;-75
2023/10/27 00:22:32;;;;;;;43.13;22.52;;;10.20;99.90;;;;;;4985778;28;20054;-76
2023/10/27 00:24:59;;;;;;;39.50;21.42;;;10.20;99.90;;;;;;4999437;28;20046;-76
2023/10/27 00:27:25;;;;;;;41.90;22.30;;;10.20;99.90;;;;;;4991517;28;20046;-76
2023/10/27 00:29:50;;;;;;;44.00;23.02;;;10.10;99.90;;;;;;4991349;28;20403;-76
2023/10/27 00:32:16;;;;;;;46.17;22.40;;;10.20;99.90;;;;;;4974765;28;20130;-76
2023/10/27 00:34:41;;;;;;;42.60;21.75;;;10.10;99.90;;;;;;4989259;28;20049;-76
2023/10/27 00:37:07;;;;;;;42.33;21.45;;;10.20;99.90;;;;;;4988689;28;20039;-76
2023/10/27 00:39:33;;;;;;;40.38;20.77;;;10.20;99.90;;;;;;4985368;28;20407;-77
2023/10/27 00:41:58;;;;;;;41.80;20.88;;;10.10;99.90;;;;;;5003483;28;20450;-76
2023/10/27 00:44:24;;;;;;;40.85;21.15;;;10.10;99.90;;;;;;4982652;28;20034;-76
2023/10/27 00:46:51;;;;;;;41.90;21.83;;;10.10;99.90;;;;;;4987709;28;20038;-76
2023/10/27 00:49:17;;;;;;;44.05;21.27;;;10.10;99.90;;;;;;4979151;28;20472;-75
2023/10/27 00:51:46;;;;;;;42.25;21.40;;;10.10;99.90;;;;;;4985177;28;20114;-76
2023/10/27 00:54:12;;;;;;;45.20;21.90;;;10.10;99.90;;;;;;4991758;28;20539;-76
2023/10/27 00:56:39;;;;;;;45.17;22.88;;;10.10;99.90;;;;;;4959722;28;20042;-76
2023/10/27 00:59:06;;;;;;;44.92;21.77;;;10.10;99.90;;;;;;4991162;28;20487;-75
2023/10/27 01:01:32;;;;;;;42.13;21.50;;;10.10;99.90;;;;;;4989912;28;20062;-76
2023/10/27 01:03:58;;;;;;;43.92;21.73;;;10.10;99.90;;;;;;5006849;28;20132;-76
2023/10/27 01:06:24;;;;;;;46.70;21.05;;;10.10;99.90;;;;;;4994642;28;20461;-76
2023/10/27 01:08:50;;;;;;;43.17;21.83;;;10.10;99.90;;;;;;4990598;28;20053;-76
2023/10/27 01:11:18;;;;;;;45.10;21.85;;;10.10;99.90;;;;;;4990951;28;20042;-75
2023/10/27 01:13:43;;;;;;;43.20;21.42;;;10.10;99.90;;;;;;4988756;28;20046;-76
2023/10/27 01:16:09;;;;;;;46.63;22.27;;;10.10;99.90;;;;;;5006016;28;20400;-75
2023/10/27 01:18:35;;;;;;;45.80;22.27;;;10.10;99.90;;;;;;4997366;28;20175;-76
2023/10/27 01:21:00;;;;;;;48.33;21.77;;;10.10;99.90;;;;;;4980437;28;20058;-76
2023/10/27 01:23:26;;;;;;;47.03;21.48;;;10.10;99.90;;;;;;4990712;28;20038;-76
2023/10/27 01:25:52;;;;;;;42.75;21.48;;;10.10;99.90;;;;;;4983523;28;20053;-76
2023/10/27 01:28:18;;;;;;;43.20;21.30;;;10.10;99.90;;;;;;4982402;28;20046;-76
2023/10/27 01:30:43;;;;;;;42.13;21.15;;;10.10;99.90;;;;;;4990857;28;20042;-76
2023/10/27 01:33:09;;;;;;;48.08;22.33;;;10.10;99.90;;;;;;4999970;28;20034;-76
2023/10/27 01:35:35;;;;;;;44.88;22.02;;;10.10;99.90;;;;;;5001019;28;20403;-76
2023/10/27 01:38:01;;;;;;;44.65;21.85;;;10.10;99.90;;;;;;4991887;28;20094;-76
2023/10/27 01:40:27;;;;;;;43.78;21.30;;;10.10;99.90;;;;;;4992531;28;20041;-76
2023/10/27 01:42:52;;;;;;;45.72;22.25;;;10.20;99.90;;;;;;4992056;28;20040;-76
2023/10/27 01:45:18;;;;;;;42.53;21.38;;;10.10;99.90;;;;;;5004730;28;20089;-76
2023/10/27 01:47:44;;;;;;;44.15;20.35;;;10.80;99.90;;;;;;4992653;28;20045;-76
2023/10/27 01:50:09;;;;;;;42.65;21.95;;;10.10;99.90;;;;;;4992471;28;20038;-76
2023/10/27 01:52:35;;;;;;;41.92;20.58;;;10.10;99.90;;;;;;4992727;28;20043;-76
2023/10/27 01:55:00;;;;;;;43.85;21.38;;;10.10;99.90;;;;;;5002172;28;20097;-75
2023/10/27 01:57:26;;;;;;;40.60;21.33;;;10.20;99.90;;;;;;4989443;28;20045;-75
2023/10/27 01:59:52;;;;;;;42.92;21.27;;;10.10;99.90;;;;;;5002655;28;20047;-75
2023/10/27 02:02:18;;;;;;;44.67;21.25;;;10.10;99.90;;;;;;5009632;28;20042;-75
2023/10/27 02:04:43;;;;;;;43.03;21.92;;;10.20;99.90;;;;;;5004350;28;20049;-75
2023/10/27 02:07:09;;;;;;;42.60;21.35;;;10.20;99.90;;;;;;4995754;28;20035;-75
2023/10/27 02:09:35;;;;;;;46.38;22.65;;;10.20;99.90;;;;;;4975705;28;20050;-75
2023/10/27 02:12:00;;;;;;;46.90;22.48;;;10.20;99.90;;;;;;4993751;28;20464;-75
2023/10/27 02:14:26;;;;;;;40.03;21.48;;;10.20;99.90;;;;;;5008001;28;20561;-75
2023/10/27 02:16:52;;;;;;;48.03;22.30;;;10.20;99.90;;;;;;4996235;28;20043;-75
2023/10/27 02:19:18;;;;;;;46.42;22.20;;;10.20;99.90;;;;;;4984874;28;20064;-75
2023/10/27 02:21:43;;;;;;;43.80;20.92;;;10.20;99.90;;;;;;4991041;28;20035;-75
2023/10/27 02:24:09;;;;;;;41.00;21.02;;;10.10;99.90;;;;;;4992616;28;20525;-76
2023/10/27 02:26:35;;;;;;;47.78;22.10;;;10.20;99.90;;;;;;4992113;28;20058;-76
2023/10/27 02:29:01;;;;;;;41.92;20.88;;;10.20;99.90;;;;;;4994750;28;20046;-76
2023/10/27 02:31:27;;;;;;;42.70;20.75;;;10.20;99.90;;;;;;5002544;28;20547;-76
2023/10/27 02:33:52;;;;;;;42.97;21.77;;;10.20;99.90;;;;;;5002354;28;20045;-75
2023/10/27 02:36:18;;;;;;;49.67;22.80;;;10.20;99.90;;;;;;4993946;28;20041;-76
2023/10/27 02:38:44;;;;;;;44.58;22.17;;;10.20;99.90;;;;;;4993491;28;20038;-75
2023/10/27 02:41:10;;;;;;;46.85;21.27;;;10.20;99.90;;;;;;4977304;28;20046;-76
2023/10/27 02:43:37;;;;;;;45.65;21.90;;;10.20;99.90;;;;;;4991564;28;20051;-76
2023/10/27 02:46:04;;;;;;;46.65;22.50;;;10.20;99.90;;;;;;4978504;28;20049;-76
2023/10/27 02:48:31;;;;;;;46.22;23.20;;;10.20;99.90;;;;;;4994785;28;20373;-75
2023/10/27 02:50:57;;;;;;;46.10;21.48;;;10.20;99.90;;;;;;4993156;28;20163;-76
2023/10/27 02:53:22;;;;;;;44.80;22.30;;;10.20;99.90;;;;;;4996800;28;20046;-76
2023/10/27 02:55:50;;;;;;;49.47;23.80;;;10.20;99.90;;;;;;4993211;28;20511;-75
2023/10/27 02:58:15;;;;;;;49.45;22.73;;;10.20;99.90;;;;;;5003480;28;20046;-75
2023/10/27 03:00:42;;;;;;;46.05;22.27;;;10.20;99.90;;;;;;4983638;28;20396;-76
2023/10/27 03:03:08;;;;;;;45.92;22.63;;;10.20;99.90;;;;;;4993057;28;20046;-76
2023/10/27 03:05:33;;;;;;;47.92;22.15;;;10.20;99.90;;;;;;4998835;28;20053;-75
2023/10/27 03:07:59;;;;;;;44.55;21.98;;;10.20;99.90;;;;;;4995332;28;20053;-76
2023/10/27 03:10:25;;;;;;;47.78;21.98;;;10.10;99.90;;;;;;4995044;28;20058;-76
2023/10/27 03:12:51;;;;;;;47.58;22.88;;;10.20;99.90;;;;;;4985627;28;20046;-75
2023/10/27 03:15:17;;;;;;;46.22;22.92;;;10.20;99.90;;;;;;4994881;28;20042;-75
2023/10/27 03:17:42;;;;;;;48.67;22.80;;;10.20;99.90;;;;;;4991825;28;20069;-75
2023/10/27 03:20:08;;;;;;;52.28;23.13;;;10.20;99.90;;;;;;4995221;28;20045;-75
2023/10/27 03:22:34;;;;;;;44.88;22.77;;;10.20;99.90;;;;;;4998922;28;20503;-76
2023/10/27 03:25:01;;;;;;;46.50;22.17;;;10.20;99.90;;;;;;5001944;28;20077;-76
2023/10/27 03:27:27;;;;;;;45.03;22.30;;;10.20;99.90;;;;;;4993149;28;20046;-76
2023/10/27 03:29:52;;;;;;;47.75;23.77;;;10.20;99.90;;;;;;4995253;28;20053;-76
2023/10/27 03:32:18;;;;;;;47.05;23.05;;;10.10;99.90;;;;;;4993742;28;20034;-76
2023/10/27 03:34:45;;;;;;;44.63;22.20;;;10.20;99.90;;;;;;4996808;28;20522;-76
2023/10/27 03:37:12;;;;;;;44.10;21.67;;;10.20;99.90;;;;;;4998493;28;20839;-76
2023/10/27 03:39:38;;;;;;;47.38;22.15;;;10.20;99.90;;;;;;5012006;22;20176;-79
2023/10/27 03:42:04;;;;;;;43.08;21.38;;;10.20;99.90;;;;;;5009058;28;20116;-77
2023/10/27 03:44:30;;;;;;;44.92;22.00;;;10.10;99.90;;;;;;5010409;28;20049;-75
2023/10/27 03:46:55;;;;;;;44.08;22.48;;;10.20;99.90;;;;;;5005207;28;20049;-78
2023/10/27 03:49:21;;;;;;;41.45;20.67;;;10.20;99.90;;;;;;5006102;28;20042;-74
2023/10/27 03:51:46;;;;;;;41.70;20.85;;;10.20;99.90;;;;;;4991994;28;20047;-74
2023/10/27 03:54:12;;;;;;;39.90;20.48;;;10.20;99.90;;;;;;4984408;28;20041;-77
2023/10/27 03:56:37;;;;;;;46.30;21.08;;;10.20;99.90;;;;;;4988044;28;20439;-74
2023/10/27 03:59:03;;;;;;;42.53;21.35;;;10.20;99.90;;;;;;4999211;28;20046;-74
2023/10/27 04:01:29;;;;;;;39.10;20.83;;;10.20;99.90;;;;;;4984525;28;20117;-74
2023/10/27 04:03:55;;;;;;;44.20;21.35;;;10.20;99.90;;;;;;4992336;28;20441;-76
2023/10/27 04:06:21;;;;;;;46.92;22.30;;;10.20;99.90;;;;;;4990683;28;20066;-77
2023/10/27 04:08:47;;;;;;;40.33;20.20;;;10.20;99.90;;;;;;4994427;28;20052;-76
2023/10/27 04:11:13;;;;;;;41.95;20.80;;;10.20;99.90;;;;;;4991270;28;20129;-77
2023/10/27 04:13:39;;;;;;;45.58;21.05;;;10.20;99.90;;;;;;4985566;28;20072;-74
2023/10/27 04:16:05;;;;;;;47.05;20.08;;;10.20;99.90;;;;;;4976963;28;20043;-78
2023/10/27 04:18:31;;;;;;;37.92;19.60;;;10.20;99.90;;;;;;4988457;28;20065;-74
2023/10/27 04:20:56;;;;;;;40.03;20.35;;;10.20;99.90;;;;;;4991257;28;20057;-74
2023/10/27 04:23:22;;;;;;;40.45;20.38;;;10.10;99.90;;;;;;4990569;28;20065;-75
2023/10/27 04:25:48;;;;;;;39.22;19.77;;;10.10;99.90;;;;;;4993897;28;20089;-74
2023/10/27 04:28:14;;;;;;;41.03;19.88;;;10.20;99.90;;;;;;4990419;28;20404;-74
2023/10/27 04:30:39;;;;;;;37.38;18.13;;;10.20;99.90;;;;;;4990677;28;20061;-74
2023/10/27 04:33:05;;;;;;;41.55;19.67;;;10.10;99.90;;;;;;4991692;28;20060;-77
2023/10/27 04:35:32;;;;;;;39.33;19.58;;;10.10;99.90;;;;;;4988278;28;20039;-77
2023/10/27 04:37:58;;;;;;;41.95;19.95;;;10.10;99.90;;;;;;4990261;28;20166;-77
2023/10/27 04:40:25;;;;;;;41.63;20.15;;;10.20;99.90;;;;;;4982266;28;20130;-74
2023/10/27 04:42:51;;;;;;;42.47;20.17;;;10.10;99.90;;;;;;4989248;28;20060;-74
2023/10/27 04:45:16;;;;;;;38.30;20.08;;;10.10;99.90;;;;;;4992594;28;20113;-74
2023/10/27 04:47:43;;;;;;;37.70;19.17;;;10.10;99.90;;;;;;4990742;28;20046;-74
2023/10/27 04:50:09;;;;;;;38.65;19.25;;;10.10;99.90;;;;;;4974590;28;20046;-74
2023/10/27 04:52:34;;;;;;;44.88;19.60;;;10.10;99.90;;;;;;4995416;28;20394;-74
2023/10/27 04:55:00;;;;;;;40.83;20.63;;;10.10;99.90;;;;;;4985996;28;20054;-74
2023/10/27 04:57:26;;;;;;;40.28;19.50;;;10.10;99.90;;;;;;4979391;28;20377;-76
2023/10/27 04:59:51;;;;;;;39.95;19.70;;;10.10;99.90;;;;;;4990943;28;20042;-74
2023/10/27 05:02:17;;;;;;;39.47;20.38;;;10.10;99.90;;;;;;4990853;28;20479;-76
2023/10/27 05:04:43;;;;;;;40.25;19.58;;;10.10;99.90;;;;;;4989891;28;20073;-75
2023/10/27 05:07:10;;;;;;;38.30;19.83;;;10.10;99.90;;;;;;4981721;28;20038;-77
2023/10/27 05:09:35;;;;;;;38.78;19.92;;;10.10;99.90;;;;;;4980943;28;20046;-74
2023/10/27 05:12:02;;;;;;;40.22;20.45;;;10.10;99.90;;;;;;4996519;28;20129;-74
2023/10/27 05:14:28;;;;;;;41.50;20.80;;;10.10;99.90;;;;;;4985497;28;20049;-74
2023/10/27 05:16:53;;;;;;;41.08;20.33;;;10.10;99.90;;;;;;4985265;28;20121;-74
2023/10/27 05:19:19;;;;;;;41.92;20.77;;;10.10;99.90;;;;;;4978648;28;20480;-75
2023/10/27 05:21:45;;;;;;;40.30;20.17;;;10.10;99.90;;;;;;4988527;28;20034;-77
2023/10/27 05:24:11;;;;;;;42.42;20.45;;;10.20;99.90;;;;;;4996503;28;20127;-74
2023/10/27 05:26:36;;;;;;;43.80;20.67;;;10.10;99.90;;;;;;4985860;28;20081;-74
2023/10/27 05:29:02;;;;;;;44.58;20.88;;;10.10;99.90;;;;;;4989250;28;20081;-75
2023/10/27 05:31:28;;;;;;;40.38;20.30;;;10.10;99.90;;;;;;4990719;28;20053;-74
2023/10/27 05:33:54;;;;;;;43.10;21.50;;;10.10;99.90;;;;;;4990449;28;20045;-75
2023/10/27 05:36:20;;;;;;;41.65;20.90;;;10.10;99.90;;;;;;4979520;28;20042;-76
2023/10/27 05:38:46;;;;;;;46.75;22.10;;;10.20;99.90;;;;;;4986630;28;20505;-78
2023/10/27 05:41:14;;;;;;;45.60;21.45;;;10.10;99.90;;;;;;4988447;28;20139;-74
2023/10/27 05:43:40;;;;;;;47.63;22.63;;;10.10;99.90;;;;;;4978123;28;20042;-75
2023/10/27 05:46:05;;;;;;;45.50;21.67;;;10.10;99.90;;;;;;4983213;28;20046;-75
2023/10/27 05:48:31;;;;;;;46.72;22.40;;;10.10;99.90;;;;;;4988984;28;20458;-75
2023/10/27 05:50:57;;;;;;;48.33;23.08;;;10.10;99.90;;;;;;4988365;28;20122;-74
2023/10/27 05:53:23;;;;;;;49.55;23.20;;;10.10;99.90;;;;;;4987025;28;20031;-74
2023/10/27 05:55:49;;;;;;;47.78;23.20;;;10.10;99.90;;;;;;4981302;28;20035;-74
2023/10/27 05:58:15;;;;;;;48.38;23.30;;;10.10;99.90;;;;;;4992521;28;20047;-74
2023/10/27 06:00:40;;;;;;;47.80;22.92;;;10.10;99.90;;;;;;4989881;28;20093;-78
2023/10/27 06:03:06;;;;;;;49.55;24.55;;;10.10;99.90;;;;;;4989103;28;20506;-78
2023/10/27 06:05:31;;;;;;;56.83;23.58;;;10.10;99.90;;;;;;4990637;28;20074;-74
2023/10/27 06:07:57;;;;;;;48.63;22.90;;;10.40;99.90;;;;;;4975908;28;20042;-80
2023/10/27 06:10:23;;;;;;;46.35;22.75;;;10.60;99.90;;;;;;4989081;28;20069;-76
2023/10/27 06:12:48;;;;;;;47.15;23.58;;;10.10;99.90;;;;;;4994101;28;20038;-77
2023/10/27 06:15:14;;;;;;;45.42;21.67;;;10.10;99.90;;;;;;4993975;28;20038;-75
2023/10/27 06:17:39;;;;;;;49.60;23.20;;;10.10;99.90;;;;;;4977808;28;20042;-75
2023/10/27 06:20:05;;;;;;;45.88;23.02;;;10.10;99.90;;;;;;4991097;28;20042;-76
2023/10/27 06:22:31;;;;;;;46.00;21.67;;;10.10;99.90;;;;;;4991418;28;20042;-76
2023/10/27 06:24:57;;;;;;;44.75;23.17;;;10.10;99.90;;;;;;4993346;28;20414;-77
2023/10/27 06:27:23;;;;;;;46.85;24.00;;;10.10;99.90;;;;;;4989725;28;20042;-79
2023/10/27 06:29:49;;;;;;;51.88;24.05;;;10.10;99.90;;;;;;4990430;28;20149;-76
2023/10/27 06:32:14;;;;;;;49.53;24.35;;;10.10;99.90;;;;;;4994242;28;20042;-79
2023/10/27 06:34:40;;;;;;;51.72;24.80;;;10.10;99.90;;;;;;4991842;28;20046;-75
2023/10/27 06:37:06;;;;;;;50.70;24.05;;;10.10;99.90;;;;;;4973289;28;20097;-76
2023/10/27 06:39:32;;;;;;;48.08;23.33;;;10.10;99.90;;;;;;4984625;28;20050;-76
2023/10/27 06:41:58;;;;;;;51.53;23.80;;;10.10;99.90;;;;;;4988753;28;20042;-76
2023/10/27 06:44:24;;;;;;;49.53;24.08;;;10.10;99.90;;;;;;4984961;28;20558;-76
2023/10/27 06:46:50;;;;;;;54.70;24.27;;;10.10;99.90;;;;;;4992694;28;20126;-76
2023/10/27 06:49:16;;;;;;;49.22;24.73;;;10.10;99.90;;;;;;4992614;28;20050;-79
2023/10/27 06:51:41;;;;;;;49.20;25.00;;;10.10;99.90;;;;;;4996935;28;20108;-78
2023/10/27 06:54:07;;;;;;;58.63;24.52;;;10.10;99.90;;;;;;4998012;28;20050;-76
2023/10/27 06:56:32;;;;;;;50.15;24.80;;;10.10;99.90;;;;;;4986785;28;20122;-76
2023/10/27 06:58:58;;;;;;;54.22;25.35;;;10.10;99.90;;;;;;4995978;28;20042;-76
2023/10/27 07:01:23;;;;;;;51.75;25.02;;;10.10;99.90;;;;;;4993927;28;20085;-78
2023/10/27 07:03:50;;;;;;;55.47;25.25;;;10.10;99.90;;;;;;4976951;28;20051;-76
2023/10/27 07:06:17;;;;;;;51.35;24.02;;;10.20;99.90;;;;;;4995760;28;20065;-78
2023/10/27 07:08:44;;;;;;;51.85;24.50;;;10.10;99.90;;;;;;4979079;28;20061;-76
2023/10/27 07:11:09;;;;;;;55.35;26.13;;;10.10;99.90;;;;;;4989172;28;20053;-76
2023/10/27 07:13:35;;;;;;;54.15;25.67;;;10.10;99.90;;;;;;4989326;28;20043;-76
2023/10/27 07:16:01;;;;;;;53.38;27.30;;;10.20;99.90;;;;;;4990843;28;20426;-77
2023/10/27 07:18:27;;;;;;;53.92;25.90;;;10.30;99.90;;;;;;4980525;28;20043;-78
2023/10/27 07:20:53;;;;;;;52.35;24.58;;;10.20;99.90;;;;;;4991891;28;20038;-77
2023/10/27 07:23:19;;;;;;;53.42;25.27;;;10.20;99.90;;;;;;4998085;28;20073;-77
2023/10/27 07:25:45;;;;;;;54.05;25.77;;;10.20;99.90;;;;;;4987804;28;20047;-77
2023/10/27 07:28:12;;;;;;;55.05;25.13;;;10.20;99.90;;;;;;4992867;28;20046;-77
2023/10/27 07:30:38;;;;;;;57.53;25.80;;;10.20;99.90;;;;;;4993373;28;20042;-76
2023/10/27 07:33:04;;;;;;;54.25;25.73;;;10.20;99.90;;;;;;4979071;28;20376;-77
2023/10/27 07:35:31;;;;;;;51.60;25.58;;;10.20;99.90;;;;;;4997100;28;20042;-76
2023/10/27 07:37:57;;;;;;;52.42;25.17;;;10.20;99.90;;;;;;4993278;28;20074;-81
2023/10/27 07:40:23;;;;;;;54.63;24.33;;;10.20;99.90;;;;;;4992824;28;20382;-77
2023/10/27 07:42:49;;;;;;;53.13;25.27;;;10.20;99.90;;;;;;4991996;28;20125;-80
2023/10/27 07:45:14;;;;;;;48.78;23.80;;;10.20;99.90;;;;;;4993970;28;20129;-77
2023/10/27 07:47:40;;;;;;;51.30;24.63;;;10.30;99.90;;;;;;4990172;28;20053;-77
2023/10/27 07:50:06;;;;;;;49.50;23.52;;;10.20;99.90;;;;;;4992886;28;20054;-79
2023/10/27 07:52:32;;;;;;;53.70;24.13;;;10.30;99.90;;;;;;4987358;28;20077;-76
2023/10/27 07:54:59;;;;;;;50.60;24.02;;;10.20;99.90;;;;;;4992800;28;20038;-78
2023/10/27 07:57:25;;;;;;;52.28;25.80;;;10.20;99.90;;;;;;4990742;28;20100;-76
2023/10/27 07:59:51;;;;;;;58.38;25.08;;;10.30;99.90;;;;;;5006604;28;20053;-78
2023/10/27 08:02:17;;;;;;;48.67;23.65;;;10.30;99.90;;;;;;4974444;28;20050;-77
2023/10/27 08:04:42;;;;;;;50.15;24.85;;;10.20;99.90;;;;;;4998208;28;20077;-77
2023/10/27 08:07:08;;;;;;;47.80;22.80;;;10.30;99.90;;;;;;4998660;28;20066;-80
2023/10/27 08:09:34;;;;;;;53.00;25.02;;;10.20;99.90;;;;;;4993318;28;20049;-77
2023/10/27 08:12:00;;;;;;;48.08;25.00;;;10.30;99.90;;;;;;4986496;28;20056;-77
2023/10/27 08:14:26;;;;;;;50.42;23.35;;;10.20;99.90;;;;;;4992016;28;20281;-77
2023/10/27 08:16:51;;;;;;;47.72;24.17;;;10.30;99.90;;;;;;4994923;28;20137;-77
2023/10/27 08:19:17;;;;;;;50.75;24.77;;;10.30;99.90;;;;;;4991993;28;20470;-77
2023/10/27 08:21:44;;;;;;;51.05;24.52;;;10.20;99.90;;;;;;4990474;28;20041;-76
2023/10/27 08:24:09;;;;;;;50.13;23.23;;;10.30;99.90;;;;;;4994784;28;20085;-76
2023/10/27 08:26:35;;;;;;;58.20;25.55;;;10.70;99.90;;;;;;4991288;28;20518;-77
2023/10/27 08:29:01;;;;;;;52.90;25.13;;;10.30;99.90;;;;;;4991090;28;20734;-77
2023/10/27 08:31:26;;;;;;;50.13;23.75;;;10.30;99.90;;;;;;4991017;28;20046;-76
2023/10/27 08:33:52;;;;;;;52.35;24.63;;;10.30;99.90;;;;;;4991564;28;20101;-77
2023/10/27 08:36:19;;;;;;;50.63;24.27;;;10.30;99.90;;;;;;4987033;28;20030;-77
2023/10/27 08:38:44;;;;;;;48.10;22.92;;;10.30;99.90;;;;;;4992016;28;20045;-76
2023/10/27 08:41:10;;;;;;;54.97;25.08;;;10.40;99.90;;;;;;4989864;28;20046;-77
2023/10/27 08:43:38;;;;;;;48.15;24.48;;;10.80;99.90;;;;;;4987237;28;20050;-77
2023/10/27 08:46:06;;;;;;;48.85;24.13;;;10.40;99.90;;;;;;4996334;28;20418;-78
2023/10/27 08:48:32;;;;;;;46.38;24.30;;;10.40;99.90;;;;;;4986276;28;20452;-77
2023/10/27 08:51:04;;;;;;;46.28;22.92;;;10.40;99.90;;;;;;4993982;28;20408;-76
2023/10/27 08:53:30;;;;;;;47.60;22.13;;;10.40;99.90;;;;;;4990891;28;20038;-76
2023/10/27 08:55:58;;;;;;;48.33;22.73;;;10.40;99.90;;;;;;4997786;28;20038;-76
2023/10/27 08:58:23;;;;;;;45.83;22.45;;;10.50;99.90;;;;;;4993223;28;20093;-77
2023/10/27 09:00:49;;;;;;;45.55;22.40;;;10.40;99.90;;;;;;4992580;28;20046;-75
2023/10/27 09:03:18;;;;;;;43.60;21.88;;;10.50;99.90;;;;;;4989485;28;20038;-75
2023/10/27 09:05:44;;;;;;;43.08;21.52;;;10.50;99.90;;;;;;4983154;28;20049;-76
2023/10/27 09:08:10;;;;;;;40.78;21.00;;;10.40;99.90;;;;;;4990219;28;20034;-76
2023/10/27 09:10:37;;;;;;;40.40;20.75;;;10.50;99.90;;;;;;4970892;28;20077;-76
2023/10/27 09:13:05;;;;;;;41.55;20.40;;;10.50;99.90;;;;;;4990348;28;20046;-75
2023/10/27 09:15:49;;;;;;;37.35;19.10;;;10.50;99.90;;;;;;4990678;28;20049;-76
2023/10/27 09:18:15;;;;;;;42.67;21.80;;;10.60;99.90;;;;;;4986901;28;20049;-76
2023/10/27 09:20:52;;;;;;;37.80;19.90;;;10.60;99.90;;;;;;4984666;28;20034;-76
2023/10/27 09:23:19;;;;;;;37.60;20.05;;;10.60;99.90;;;;;;4990731;28;20395;-77
2023/10/27 09:25:46;;;;;;;37.97;19.98;;;10.60;99.90;;;;;;4990475;28;20042;-75
2023/10/27 09:28:12;;;;;;;37.50;19.73;;;10.60;99.90;;;;;;4987973;28;20034;-76
2023/10/27 09:30:40;;;;;;;35.72;19.33;;;10.60;99.90;;;;;;4990449;28;20038;-77
2023/10/27 09:33:22;;;;;;;38.60;19.27;;;10.60;99.90;;;;;;4989247;28;20061;-76
2023/10/27 09:35:49;;;;;;;;;;;10.60;99.90;;;;;;4987185;28;20069;-77
2023/10/27 09:38:15;;;;;;;40.17;19.27;;;10.60;99.90;;;;;;4987622;28;19918;-76
2023/10/27 09:40:43;;;;;;;35.05;19.10;;;10.60;99.90;;;;;;5018271;23;20042;-72
2023/10/27 09:43:17;;;;;;;35.25;18.73;;;10.60;99.90;;;;;;5021833;28;20095;-72
2023/10/27 09:45:53;;;;;;;32.97;17.60;;;10.60;99.90;;;;;;5017539;28;20045;-72
2023/10/27 09:48:27;;;;;;;32.78;18.10;;;10.60;99.90;;;;;;5017749;28;20041;-72
2023/10/27 09:51:09;;;;;;;34.38;18.80;;;10.70;99.90;;;;;;5014404;28;20053;-72
2023/10/27 09:53:35;;;;;;;33.67;18.40;;;10.70;99.90;;;;;;5004284;28;20053;-71
2023/10/27 09:56:01;;;;;;;30.08;16.48;;;10.60;99.90;;;;;;5010042;28;20478;-71
2023/10/27 09:58:30;;;;;;;32.70;16.60;;;10.60;99.90;;;;;;5012093;28;20038;-71
2023/10/27 10:00:57;;;;;;;32.70;16.98;;;10.60;99.90;;;;;;5013369;28;20050;-71
2023/10/27 10:03:27;;;;;;;30.75;17.05;;;10.60;99.90;;;;;;5018479;28;20042;-72
2023/10/27 10:06:23;;;;;;;33.17;17.50;;;10.60;99.90;;;;;;5019331;28;20127;-72
2023/10/27 10:09:09;;;;;;;35.95;17.67;;;10.60;99.90;;;;;;5011842;28;20096;-72
2023/10/27 10:11:55;;;;;;;31.55;16.33;;;10.50;99.90;;;;;;5003514;28;20119;-72
2023/10/27 10:14:43;;;;;;;32.53;15.88;;;10.60;99.90;;;;;;5013731;28;20034;-72
2023/10/27 10:17:09;;;;;;;29.00;16.33;;;10.50;99.90;;;;;;5016289;28;20034;-72
2023/10/27 10:19:55;;;;;;;31.90;16.88;;;10.50;99.90;;;;;;5022841;28;20493;-72
2023/10/27 10:22:42;;;;;;;27.88;15.93;;;10.50;99.90;;;;;;5015964;28;20050;-72
2023/10/27 10:25:21;;;;;;;33.33;17.10;;;10.60;99.90;;;;;;5023207;28;20150;-72
2023/10/27 10:28:11;;;;;;;28.27;15.30;;;10.60;99.90;;;;;;5022733;28;20066;-72
2023/10/27 10:30:38;;;;;;;29.15;16.33;;;10.60;99.90;;;;;;5015929;28;20075;-72
2023/10/27 10:33:16;;;;;;;33.15;17.40;;;10.60;99.90;;;;;;5023087;28;20235;-73
2023/10/27 10:35:46;;;;;;;31.70;16.55;;;10.60;99.90;;;;;;5023617;28;20293;-72
2023/10/27 10:38:21;;;;;;;30.90;16.15;;;10.70;99.90;;;;;;5021518;28;20057;-73
2023/10/27 10:41:00;;;;;;;33.50;16.85;;;10.70;99.90;;;;;;5022840;28;20037;-72
2023/10/27 10:43:39;;;;;;;27.65;16.20;;;10.70;99.90;;;;;;5011632;28;20393;-72
2023/10/27 10:46:06;;;;;;;28.27;15.98;;;10.70;99.90;;;;;;5025814;28;20484;-72
2023/10/27 10:48:41;;;;;;;29.80;16.70;;;10.70;99.90;;;;;;5025166;28;20042;-72
2023/10/27 10:51:13;;;;;;;30.05;16.20;;;10.70;99.90;;;;;;5020255;28;20049;-73
2023/10/27 10:53:39;;;;;;;28.95;16.45;;;10.70;99.90;;;;;;5014563;28;20033;-73
2023/10/27 10:56:06;;;;;;;31.27;15.75;;;10.70;99.90;;;;;;5015396;28;20446;-73
2023/10/27 10:58:34;;;;;;;29.98;15.48;;;10.70;99.90;;;;;;5014154;28;20034;-72
2023/10/27 11:01:00;;;;;;;28.27;16.55;;;10.70;99.90;;;;;;5019970;28;20505;-73
2023/10/27 11:03:31;;;;;;;27.83;15.45;;;10.80;99.90;;;;;;5021959;28;20065;-72
2023/10/27 11:05:59;;;;;;;29.67;16.02;;;10.80;99.90;;;;;;5030553;28;20142;-72
2023/10/27 11:08:30;;;;;;;30.33;14.82;;;10.80;99.90;;;;;;5018835;28;20474;-73
2023/10/27 11:11:09;;;;;;;25.98;14.73;;;10.80;99.90;;;;;;5014283;28;20135;-73
2023/10/27 11:13:45;;;;;;;26.23;14.35;;;10.80;99.90;;;;;;5023575;28;20050;-72
2023/10/27 11:16:15;;;;;;;26.48;14.43;;;10.80;99.90;;;;;;5021342;28;20494;-72
2023/10/27 11:18:41;;;;;;;25.90;14.50;;;11.00;99.90;;;;;;5018980;28;20437;-72
2023/10/27 11:21:14;;;;;;;26.75;14.15;;;10.90;99.90;;;;;;5023489;28;20034;-73
2023/10/27 11:23:40;;;;;;;24.15;13.82;;;10.90;99.90;;;;;;5023167;28;20406;-73
2023/10/27 11:26:05;;;;;;;25.33;13.93;;;10.90;99.90;;;;;;5021752;28;20033;-72
2023/10/27 11:28:37;;;;;;;25.25;14.50;;;10.90;99.90;;;;;;5014102;28;20048;-72
2023/10/27 11:31:03;;;;;;;24.35;14.48;;;10.90;99.90;;;;;;5022296;28;20585;-72
2023/10/27 11:33:29;;;;;;;25.90;14.63;;;10.90;99.90;;;;;;5023833;28;20048;-72
2023/10/27 11:35:57;;;;;;;26.48;15.20;;;10.90;99.90;;;;;;5019152;28;20058;-75
2023/10/27 11:38:23;;;;;;;24.67;14.70;;;10.90;99.90;;;;;;5019475;28;20076;-73
2023/10/27 11:40:50;;;;;;;28.55;15.38;;;10.90;99.90;;;;;;5031064;28;20497;-72
2023/10/27 11:43:16;;;;;;;25.15;14.18;;;10.90;99.90;;;;;;5026337;28;20429;-74
2023/10/27 11:45:44;;;;;;;24.48;13.98;;;10.90;99.90;;;;;;5018761;28;20041;-72
2023/10/27 11:48:09;;;;;;;25.90;14.40;;;10.90;99.90;;;;;;5022395;28;20114;-72
2023/10/27 11:50:35;;;;;;;23.15;13.70;;;10.90;99.90;;;;;;5018315;28;20076;-72
2023/10/27 11:53:01;;;;;;;27.25;14.98;;;10.90;99.90;;;;;;5022276;28;20042;-72
2023/10/27 11:55:26;;;;;;;27.33;14.80;;;10.90;99.90;;;;;;5019100;28;20036;-73
2023/10/27 11:57:52;;;;;;;27.95;15.75;;;10.90;99.90;;;;;;5015015;28;20042;-72
2023/10/27 12:00:18;;;;;;;25.85;14.82;;;10.90;99.90;;;;;;5014762;28;20068;-72
2023/10/27 12:02:43;;;;;;;28.00;14.93;;;10.90;99.90;;;;;;5006998;28;20045;-72
2023/10/27 12:05:12;;;;;;;26.48;14.70;;;10.90;99.90;;;;;;5022695;28;20052;-73
2023/10/27 12:07:37;;;;;;;27.30;14.45;;;11.00;99.90;;;;;;5022947;28;20121;-73
2023/10/27 12:10:03;;;;;;;22.35;13.60;;;11.00;99.90;;;;;;5022227;28;20565;-73
2023/10/27 12:12:29;;;;;;;25.73;14.70;;;11.00;99.90;;;;;;5019067;28;20410;-74
2023/10/27 12:14:55;;;;;;;25.63;14.00;;;11.00;99.90;;;;;;5024775;28;20045;-74
2023/10/27 12:17:23;;;;;;;25.15;14.75;;;11.00;99.90;;;;;;5011125;28;20030;-72
2023/10/27 12:19:49;;;;;;;27.58;14.35;;;10.90;99.90;;;;;;5023510;28;20041;-74
2023/10/27 12:22:14;;;;;;;25.55;14.68;;;11.00;99.90;;;;;;5015474;28;20799;-72
2023/10/27 12:24:40;;;;;;;23.75;13.90;;;11.00;99.90;;;;;;5022997;28;20045;-72
2023/10/27 12:27:09;;;;;;;25.52;14.23;;;11.00;99.90;;;;;;5022953;28;20034;-72